In Rescue
 
Open Full Screen Window  High Contrast Mode
October 25, 2021 5:22 PM EDT
Present Weather: Light Drizzle
Weather Information
Wind Direction
  ---
Wind Speed
  00 kt (0 mph)
Wind Gust
  00 kt (0 mph)
Altimeter
29.68 in
Visibility
4 SM
Temperature
12° C
54° F
Dewpoint
11° C
52° F
Humidity
94%
1hr Rain Fall
00.02 in.
24hr Rain Fall
01.42 in.
Sky Condition
Overcast @ 4,600 ft
Broken @ 1,900 ft
Broken @ 1,100 ft
MVFR

METAR KDLZ 252122Z AUTO 00000KT 4SM -DZ BKN011 BKN019 OVC046 12/11 A2968 RMK AO2 P0002

FAA Disclaimer: The data displayed is for advisory purposes only and is not to be used for flight planning or operations.